Weather observations for the past three days for
Blairsville Airport
Metric (Imperial)
Date Time (edt) Wind (kph) Vis. (km) Weather Sky Cond. Temperature (ºC) Relative Humidity Wind Chill (°C) Heat Index (°C) Pressure Precipitation (cm)
Air Dwpt 6 hour altimeter (cm) sea level (mb) 1 hr 3 hr 6 hr
Max. Min.
10 16:35 NE 7 16.09 Fair CLR 24.7 9.2 37% 25 76.33 0.0
10 16:15 N 9 16.09 Fair CLR 25.4 8.4 34% 26 76.33 0.0
10 15:55 NE 6 16.09 Fair CLR 25.3 5.4 28% 25 76.35 0.0
10 15:35 W 6 16.09 Fair CLR 24.9 4.7 27% 25 76.35 0.0
10 15:15 N 7 16.09 Fair CLR 24.7 6.7 32% 25 76.35 0.0
10 14:55 N 7 16.09 Fair CLR 24.6 5.8 30% 25 76.38 0.0
10 14:35 N 9 16.09 Fair CLR 24.3 6.6 32% 25 76.38 0.0
10 14:15 W 6 16.09 Fair CLR 24.1 8.9 38% 25 76.38 0.0
10 13:55 NW 9 16.09 Fair CLR 23.8 10.4 24.2 11.1 43% 76.38 0.0
10 13:35 SE 7 16.09 Fair CLR 23.1 9.3 42% 76.4 0.0
10 13:15 N 6 16.09 Fair CLR 23.7 11.1 45% 76.4 0.0
10 12:55 N 9 16.09 Fair CLR 22.3 11.5 51% 76.4 0.0
10 12:35 SE 6 16.09 Fair CLR 22.2 11.7 52% 76.4 0.0
10 12:15 NW 6 16.09 Fair CLR 21.5 13 59% 76.43 0.0
10 11:55 NE 7 16.09 Fair CLR 21.9 12 54% 76.43 0.0
10 11:35 W 7 16.09 Fair CLR 21 13.1 61% 76.43 0.0
10 11:15 NW 9 16.09 Fair CLR 19.9 13.8 68% 76.43 0.0
10 10:55 SW 6 16.09 Fair CLR 17.6 14.9 84% 76.45 0.0
10 10:35 Calm 16.09 Partly Cloudy SCT003 16.5 15.4 93% 76.45 0.0
10 10:15 Calm 11.27 Mostly Cloudy BKN003 15 0 0% 76.45 0.0
10 09:55 E 6 3.22 Fog/Mist OVC001 14 0 0% 76.45 0.0
10 09:35 NE 6 0.40 Fog OVC001 14 0 0% 76.45 0.0
10 08:55 Calm 0.24 Fog OVC001 12 0 0% 76.43 0.0
10 08:35 Calm 0.24 Fog OVC001 12 0 0% 76.43 0.0
10 08:15 Calm 0.24 Fog OVC001 11 0 0% 76.4 0.0
10 07:55 Calm 0.24 Fog OVC001 11 0 12.4 9.9 0% 76.38 0.0
10 07:35 Calm 0.24 Fog OVC001 11 0 0% 76.35 0.0
10 07:15 Calm 0.24 Fog OVC001 11 0 0% 76.35 0.0
10 06:55 Calm 0.24 Fog OVC001 10 0 0% 76.33 0.0
10 06:35 Calm 0.24 Fog OVC001 10 0 0% 76.3 0.0
10 06:15 Calm 0.24 Fog OVC001 10 0 0% 76.28 0.0
10 05:55 Calm 0.80 Fog OVC001 10 0 0% 76.28 0.0
10 05:35 Calm 0.40 Fog OVC001 10 0 0% 76.28 0.0
10 05:15 Calm 0.40 Fog OVC001 10 0 0% 76.25 0.0
10 04:55 Calm 0.40 Fog OVC001 10 0 0% 76.23 0.0
10 04:35 Calm 1.61 Fog/Mist OVC001 11 0 0% 76.23 0.0
10 04:15 Calm 1.21 Fog/Mist VV005 10 0 0% 76.2 0.0
10 03:55 Calm 1.21 Fog/Mist VV005 11 0 0% 76.17 0.0
10 03:35 Calm 1.61 Fog/Mist BKN044 11 0 0% 76.17 0.0
10 03:15 Calm 6.44 Fog/Mist BKN044 12 0 0% 76.17 0.0
10 02:55 Calm 3.22 Fog/Mist SCT042 12 0 0% 76.17 0.0
10 02:35 Calm 3.22 Fog/Mist SCT003 BKN040 12 0 0% 76.17 0.0
10 02:15 Calm 4.83 Fog/Mist SCT003 SCT039 12 0 0% 76.17 0.0
10 01:55 Calm 6.44 Fog/Mist SCT045 12 0 18.1 12.3 0% 76.17 0.0
10 01:35 Calm 8.05 Mostly Cloudy with Haze BKN045 13 0 0% 76.17 0.0
10 01:15 Calm 8.05 Fog/Mist BKN043 BKN049 13 13 100% 76.2 0.0
10 00:55 Calm 11.27 Fog/Mist BKN042 BKN048 13.2 13.1 99% 76.2 0.0
10 00:35 Calm 11.27 Overcast BKN040 OVC046 13.4 13.3 99% 76.2 0.0
10 00:15 Calm 16.09 Partly Cloudy SCT038 13.4 13.3 99% 76.2 0.0
09 23:55 Calm 11.27 Fair CLR 13.5 13.3 99% 76.2 0.0
09 23:15 Calm 16.09 Fair CLR 14.2 13.8 97% 76.17 0.0
09 22:55 Calm 16.09 Fair CLR 14.3 13.7 96% 76.17 0.0
09 22:35 Calm 16.09 Fair CLR 14.8 13.8 94% 76.15 0.0
09 22:15 Calm 16.09 Fair CLR 15.1 13.9 93% 76.12 0.0
09 21:55 Calm 16.09 Fair CLR 15.2 13.9 92% 76.12 0.0
09 21:35 Calm 16.09 Fair CLR 16.1 14 87% 76.1 0.0
09 21:15 Calm 16.09 Fair CLR 16.3 13.9 86% 76.1 0.0
09 20:55 Calm 16.09 Fair CLR 16.2 13.7 85% 76.07 0.0
09 20:35 Calm 16.09 Fair CLR 16.7 13.6 82% 76.02 0.0
09 20:15 Calm 16.09 Fair CLR 17.5 13.7 79% 76.02 0.0
09 19:55 Calm 16.09 Partly Cloudy SCT050 18.2 13.6 21.6 18.1 75% 76.02 0.0
09 19:35 W 7 16.09 Mostly Cloudy BKN050 19 13.5 71% 76 0.0
09 19:15 Calm 16.09 Partly Cloudy SCT050 20.1 13.7 67% 75.97 0.0
09 18:35 W 7 16.09 Fair CLR 20.3 13 63% 75.97 0.0
09 18:15 Calm 16.09 Fair CLR 20.8 13 61% 75.95 0.0
09 17:55 W 7 16.09 Fair CLR 21.1 13.6 62% 75.95 0.0
09 17:35 W 9 16.09 Fair CLR 21.2 12.9 59% 75.95 0.0
09 17:15 W 9 16.09 Fair CLR 21 12.5 58% 75.95 0.0
09 16:55 W 6 16.09 Fair CLR 21.2 12.8 59% 75.92 0.0
09 16:35 NW 6 16.09 Fair CLR 21.1 12.6 58% 75.9 0.0
09 16:15 Calm 16.09 Fair CLR 20.7 12.5 60% 75.92 0.0
09 15:55 SW 9 16.09 Fair CLR 21 12.5 58% 75.95 0.0
09 15:35 NW 6 16.09 Fair CLR 21 12.9 60% 75.95 0.0
09 15:15 SW 6 16.09 Fair CLR 20.7 12.2 58% 75.95 0.0
09 14:55 W 7 16.09 Fair CLR 20.8 12.4 59% 75.95 0.0
09 14:35 W 7 16.09 Fair CLR 20.8 12 57% 75.97 0.0
09 14:15 N 6 16.09 Partly Cloudy SCT037 SCT045 20.5 11.8 58% 75.97 0.0
09 13:35 W 9 16.09 Fair CLR 20.2 11.7 58% 75.97 0.0
09 13:15 W 9 16.09 Partly Cloudy SCT028 19.8 11.7 60% 75.97 0.0
09 12:55 W 7 16.09 Mostly Cloudy BKN026 BKN036 20.4 13.2 63% 76.02 0.0
09 12:35 SW 6 16.09 Mostly Cloudy BKN026 BKN032 19.9 13.3 66% 76 0.0
09 11:55 W 9 16.09 Overcast BKN024 OVC032 18.2 13.2 73% 76.05 0.0
09 11:35 E 7 16.09 Overcast BKN019 OVC028 17.8 13.6 77% 76.02 0.0
09 11:15 E 6 16.09 Overcast BKN017 OVC026 17.5 13.6 78% 76.07 0.0
09 10:55 N 6 16.09 Overcast OVC017 16.5 13.2 81% 76.05 0.0
09 10:35 Calm 16.09 Overcast BKN015 OVC021 16 13 83% 76 0.0
09 10:15 Calm 16.09 Overcast OVC017 15.6 13.1 85% 76 0.0
09 09:55 Calm 16.09 Overcast OVC015 14.7 12.5 87% 76 0.0
09 09:35 Calm 16.09 Overcast OVC017 14.1 12.4 90% 76 0.0
09 09:15 Calm 16.09 Overcast OVC017 13.4 11.8 90% 76 0.0
09 08:55 Calm 16.09 Overcast OVC019 13.1 12 93% 76 0.0
09 08:35 Calm 16.09 Overcast OVC019 12.5 11.4 93% 76 0.0
09 08:15 Calm 16.09 Overcast OVC021 12 11.2 95% 76 0.0
09 07:55 Calm 11.27 Overcast OVC021 11.6 10.9 11.7 7.9 96% 76 0.0
09 07:35 Calm 11.27 Overcast OVC023 11.4 10.8 96% 76.02 0.0
09 07:15 Calm 8.05 Fog/Mist OVC023 11 10.8 99% 76.02 0.0
09 06:55 Calm 6.44 Fog/Mist OVC023 10.5 10.4 99% 76 0.0
09 06:35 Calm 6.44 Fog/Mist OVC023 10.2 10.1 99% 76 0.0
09 06:15 Calm 11.27 Overcast OVC023 10.4 10.2 99% 76 0.0
09 05:55 Calm 8.05 Fog/Mist OVC023 10.1 10 99% 76 0.0
09 05:35 Calm 6.44 Fog/Mist BKN023 OVC075 9.9 9.8 99% 76 0.0
09 05:15 Calm 8.05 Fog/Mist BKN023 OVC075 10 9.9 99% 76 0.0
09 04:55 E 6 8.05 Fog/Mist OVC023 9.8 9.8 100% 76 0.0
09 04:35 N 6 5.63 Fog/Mist BKN023 OVC060 9 0 0% 76 0.0
09 03:55 S 6 11.27 Fog/Mist BKN060 9 9 100% 76 0.0
09 03:35 N 6 11.27 Mostly Cloudy BKN060 9 0 0% 76 0.0
09 03:15 SW 7 11.27 Mostly Cloudy with Haze BKN060 BKN070 9 0 0% 8 75.97 0.0
09 02:55 Calm 8.05 Fog/Mist SCT070 8.6 8.3 98% 76.02 0.0
09 02:35 Calm 11.27 Fair CLR 8.9 8.8 99% 76.05 0.0
09 02:15 Calm 16.09 Fair CLR 8.9 8.8 99% 76.07 0.0
09 01:55 W 7 16.09 Partly Cloudy SCT100 9.3 9.2 16.2 9.2 99% 9 76.1 0.0
09 01:35 Calm 16.09 Fair CLR 9.6 9.3 98% 76.1 0.0
09 01:15 Calm 16.09 Partly Cloudy SCT027 9.9 9.6 98% 76.1 0.0
09 00:55 Calm 16.09 Mostly Cloudy BKN029 9.9 9.6 98% 76.12 0.0
09 00:35 W 6 16.09 Mostly Cloudy BKN031 10.4 9.7 95% 76.12 0.0
09 00:15 W 6 16.09 Partly Cloudy SCT029 10.4 9.6 95% 76.12 0.0
08 23:55 Calm 16.09 Fair CLR 10.7 9.6 93% 76.15 0.0
08 23:35 Calm 16.09 Partly Cloudy SCT029 10.7 9.6 93% 76.15 0.0
08 23:15 Calm 16.09 Partly Cloudy SCT029 SCT033 10.8 9.2 90% 76.17 0.0
08 22:55 N 6 16.09 Partly Cloudy SCT029 11.5 9.4 87% 76.17 0.0
08 22:35 N 6 16.09 Fair CLR 12 9.2 83% 76.17 0.0
08 22:15 NE 6 16.09 Fair CLR 12.9 9.2 78% 76.15 0.0
08 21:55 E 6 16.09 Fair CLR 13.1 9.2 77% 76.15 0.0
08 21:35 NE 7 16.09 Fair CLR 13.3 9 75% 76.15 0.0
08 21:15 NE 6 16.09 Fair CLR 13.9 8.9 72% 76.15 0.0
08 20:55 E 6 16.09 Fair CLR 13.6 9.7 77% 76.15 0.0
08 20:35 Calm 16.09 Fair CLR 15.3 8.1 62% 76.15 0.0
08 20:15 SE 6 16.09 Fair CLR 15.8 8.1 60% 76.12 0.0
08 19:55 S 11 16.09 Fair CLR 16.1 8 21.3 16 59% 76.12 0.0
08 19:35 S 11 16.09 Fair CLR 16.5 8.2 58% 76.12 0.0
08 19:15 S 9 16.09 Fair CLR 16.8 8.5 58% 76.12 0.0
08 18:55 SW 11 16.09 Fair CLR 17.2 8.8 58% 76.12 0.0
08 18:35 S 11 16.09 Fair CLR 17.8 8.2 54% 76.12 0.0
08 18:15 S 17 16.09 Fair CLR 18.4 8.8 54% 76.1 0.0
08 17:55 S 11 16.09 Fair CLR 18.6 9 54% 76.12 0.0
08 17:35 SW 7 16.09 Fair CLR 18.8 9 53% 76.1 0.0
08 17:15 S 13 16.09 Fair CLR 19.1 8.7 51% 76.1 0.0
08 16:55 SW 11 11.27 Fair CLR 19.6 8.8 50% 76.12 0.0
08 16:35 S 13 11.27 Fair CLR 20.3 8.6 47% 76.1 0.0
08 16:15 SW 6 11.27 Fair CLR 20.1 8.3 47% 76.12 0.0
08 15:55 SW 9 11.27 Fair CLR 20.3 8.2 46% 76.15 0.0
08 15:35 SW 7 11.27 Partly Cloudy with Haze SCT060 20.1 7 43% 76.15 0.0
08 15:15 E 6 11.27 Fair with Haze CLR 21.1 7.6 42% 76.17 0.0
08 14:55 SW 7 11.27 Fair with Haze CLR 20.2 6.7 42% 76.2 0.0
08 14:35 S 6 11.27 Fair CLR 20.4 8.9 48% 76.23 0.0
08 14:15 E 7 11.27 Fair CLR 20.3 5.2 37% 76.23 0.0
08 13:55 SE 13 11.27 Fair CLR 20 6.4 20.5 6.6 41% 76.25 0.0
08 13:35 S 13 11.27 Fair CLR 20.3 7.4 43% 76.25 0.0
08 13:15 W 7 11.27 Fair CLR 19.5 6.8 44% 76.25 0.0
08 12:55 S 7 11.27 Fair CLR 19.5 6.8 44% 76.3 0.0
08 12:35 E 6 11.27 Fair CLR 18.9 6.1 43% 76.33 0.0
08 12:15 W 7 11.27 Fair CLR 18.4 5.5 43% 76.33 0.0
08 11:55 SE 11 11.27 Fair CLR 18.6 5.7 43% 76.35 0.0
08 11:35 SE 9 11.27 Fair CLR 18.2 6.8 48% 76.35 0.0
08 11:15 Calm 11.27 Fair CLR 15.9 8.5 62% 76.38 0.0
08 10:55 SE 6 16.09 Fair CLR 14.6 10.1 75% 76.38 0.0
08 10:35 Calm 16.09 Fair CLR 13.5 9 74% 76.4 0.0
08 10:15 Calm 16.09 Fair CLR 12 9.8 87% 76.4 0.0
08 09:55 Calm 11.27 Fair CLR 10.6 10 96% 76.4 0.0
08 09:15 Calm 8.05 Overcast with Haze OVC002 9 0 0% 76.43 0.0
08 08:35 Calm 0.24 Fog OVC002 8 0 0% 76.43 0.0
08 08:15 Calm 0.24 Fog OVC002 7 0 0% 76.4 0.0
08 07:55 Calm 0.24 Fog OVC002 7 0 8.9 5.3 0% 76.4 0.0
08 07:35 Calm 0.24 Fog OVC002 6 0 0% 76.35 0.0
08 07:15 Calm 0.24 Fog OVC002 6 0 0% 76.35 0.0
08 06:55 Calm 1.21 Fog/Mist OVC002 6 0 0% 76.3 0.0
08 06:35 Calm 1.21 Fog/Mist BKN002 6 0 0% 76.25 0.0
08 06:15 Calm 2.41 Fog/Mist VV007 6 0 0% 76.25 0.0
08 05:55 Calm 3.22 Fog/Mist VV007 6 0 0% 76.25 0.0
08 05:35 Calm 2.01 Fog/Mist BKN001 6 0 0% 76.25 0.0
08 05:15 Calm 1.61 Fog/Mist BKN001 6 0 0% 76.23 0.0
08 04:55 Calm 2.01 Fog/Mist SCT002 6 0 0% 76.23 0.0
08 04:35 Calm 1.21 Fog/Mist BKN002 6 0 0% 76.23 0.0
08 04:15 W 6 8.05 Fair with Haze CLR 7 0 0% 76.23 0.0
08 03:35 W 6 0.40 Fog OVC002 7 0 0% 76.23 0.0
08 03:15 Calm 0.40 Fog OVC002 7 0 0% 76.23 0.0
08 02:55 Calm 0.80 Fog OVC002 7 0 0% 76.23 0.0
08 02:35 Calm 0.40 Fog OVC002 8 0 0% 76.23 0.0
08 02:15 Calm 4.83 Fog/Mist CLR 8 0 0% 76.23 0.0
08 01:55 Calm 11.27 Fair CLR 9 0 14 8.3 0% 76.23 0.0
08 01:35 Calm 8.05 Fair with Haze CLR 9 0 0% 76.23 0.0
08 01:15 Calm 5.63 Fog/Mist SCT027 9 0 0% 76.23 0.0
08 00:55 Calm 5.63 Fog/Mist SCT029 9 0 0% 76.23 0.0
08 00:35 SW 6 5.63 Fog/Mist SCT031 9 0 0% 76.2 0.0
08 00:15 Calm 6.44 Partly Cloudy with Haze SCT029 10 0 0% 76.2 0.0
07 23:55 Calm 8.05 Mostly Cloudy with Haze BKN029 BKN036 10 0 0% 76.2 0.0
07 23:35 Calm 11.27 Fog/Mist SCT031 SCT038 9.8 9.8 100% 76.2 0.0
07 22:55 Calm 11.27 Fog/Mist CLR 10.1 10.1 100% 76.2 0.0
07 22:35 Calm 11.27 Fair CLR 10.1 10 99% 76.2 0.0
07 22:15 Calm 11.27 Fair CLR 10.5 10.4 99% 76.2 0.0
07 21:55 S 6 16.09 Fair CLR 10.5 9.9 96% 76.17 0.0
07 21:35 SW 6 16.09 Fair CLR 11.2 9.9 92% 76.15 0.0
07 21:15 Calm 16.09 Fair CLR 11.4 10.1 92% 76.15 0.0
07 20:55 Calm 16.09 Fair CLR 12.1 9.8 86% 76.15 0.0
07 20:35 Calm 16.09 Fair CLR 13.2 9.6 79% 76.12 0.0
07 20:15 W 6 16.09 Fair CLR 13.7 9.8 77% 76.1 0.0
07 19:55 W 6 16.09 Partly Cloudy SCT029 SCT044 13.9 10.1 17.4 13.8 78% 76.1 0.0
07 19:35 Calm 16.09 Partly Cloudy SCT046 14.3 10.2 77% 76.1 0.0
07 19:15 NW 6 16.09 Partly Cloudy SCT044 14.8 10 73% 76.07 0.0
07 18:55 NW 6 16.09 Mostly Cloudy BKN044 15 10.2 73% 76.1 0.0
07 18:35 NW 7 16.09 Mostly Cloudy SCT022 BKN042 15 10.3 74% 76.07 0.0
07 18:15 NW 6 16.09 Overcast BKN037 OVC042 14.9 10.2 74% 76.07 0.0
07 17:55 NW 9 16.09 Overcast OVC037 15 10 72% 76.07 0.0
07 17:35 NW 9 16.09 Overcast OVC037 15 10.4 74% 76.05 0.0
07 17:15 NW 9 16.09 Overcast SCT016 SCT024 OVC034 14.7 10.8 78% 76.05 0.0
07 16:55 NW 17 16.09 Overcast SCT016 BKN025 OVC034 15.1 11.4 79% 76.02 0.0
Date Time (edt) Wind (kph) Vis. (km) Weather Sky Cond. Air Dwpt Max. Min. Relative Humidity Wind Chill (°C) Heat Index (°C) altimeter (cm) sea level (mb) 1 hr 3 hr 6 hr
6 hour
Temperature (ºC) Pressure Precipitation (cm)